sensor_id;sensor_type;location;lat;lon;timestamp;temperature;humidity
780;DHT22;373;49.342;8.146;2022-09-27T00:01:16;11.10;99.90
780;DHT22;373;49.342;8.146;2022-09-27T00:03:45;11.30;99.90
780;DHT22;373;49.342;8.146;2022-09-27T00:06:14;11.30;99.90
780;DHT22;373;49.342;8.146;2022-09-27T00:08:42;11.30;99.90
780;DHT22;373;49.342;8.146;2022-09-27T00:11:13;11.40;99.90
780;DHT22;373;49.342;8.146;2022-09-27T00:13:42;11.30;99.90
780;DHT22;373;49.342;8.146;2022-09-27T00:16:10;11.20;99.90
780;DHT22;373;49.342;8.146;2022-09-27T00:18:38;11.30;99.90
780;DHT22;373;49.342;8.146;2022-09-27T00:21:08;11.40;99.90
780;DHT22;373;49.342;8.146;2022-09-27T00:23:36;11.40;99.90
780;DHT22;373;49.342;8.146;2022-09-27T00:26:05;11.50;99.90
780;DHT22;373;49.342;8.146;2022-09-27T00:28:33;11.80;99.90
780;DHT22;373;49.342;8.146;2022-09-27T00:31:00;11.90;99.90
780;DHT22;373;49.342;8.146;2022-09-27T00:33:27;12.10;99.90
780;DHT22;373;49.342;8.146;2022-09-27T00:35:54;12.20;99.90
780;DHT22;373;49.342;8.146;2022-09-27T00:38:23;12.10;99.90
780;DHT22;373;49.342;8.146;2022-09-27T00:40:50;12.10;99.90
780;DHT22;373;49.342;8.146;2022-09-27T00:43:19;12.10;99.90
780;DHT22;373;49.342;8.146;2022-09-27T00:45:50;12.20;99.90
780;DHT22;373;49.342;8.146;2022-09-27T00:48:20;12.20;99.90
780;DHT22;373;49.342;8.146;2022-09-27T00:50:50;12.10;99.90
780;DHT22;373;49.342;8.146;2022-09-27T00:53:22;12.10;99.90
780;DHT22;373;49.342;8.146;2022-09-27T00:55:54;12.20;99.90
780;DHT22;373;49.342;8.146;2022-09-27T00:58:27;12.10;99.90
780;DHT22;373;49.342;8.146;2022-09-27T01:00:57;11.90;99.90
780;DHT22;373;49.342;8.146;2022-09-27T01:03:33;11.80;99.90
780;DHT22;373;49.342;8.146;2022-09-27T01:06:01;11.60;99.90
780;DHT22;373;49.342;8.146;2022-09-27T01:08:28;11.60;99.90
780;DHT22;373;49.342;8.146;2022-09-27T01:11:12;11.80;99.90
780;DHT22;373;49.342;8.146;2022-09-27T01:13:47;11.80;99.90
780;DHT22;373;49.342;8.146;2022-09-27T01:16:25;11.90;99.90
780;DHT22;373;49.342;8.146;2022-09-27T01:19:04;12.00;99.90
780;DHT22;373;49.342;8.146;2022-09-27T01:21:44;11.90;99.90
780;DHT22;373;49.342;8.146;2022-09-27T01:24:39;11.70;99.90
780;DHT22;373;49.342;8.146;2022-09-27T01:30:41;11.60;99.90
780;DHT22;373;49.342;8.146;2022-09-27T01:33:21;11.50;99.90
780;DHT22;373;49.342;8.146;2022-09-27T01:35:58;11.50;99.90
780;DHT22;373;49.342;8.146;2022-09-27T01:38:35;11.50;99.90
780;DHT22;373;49.342;8.146;2022-09-27T01:41:13;11.40;99.90
780;DHT22;373;49.342;8.146;2022-09-27T01:44:04;11.50;99.90
780;DHT22;373;49.342;8.146;2022-09-27T01:46:42;11.50;99.90
780;DHT22;373;49.342;8.146;2022-09-27T01:49:34;11.60;99.90
780;DHT22;373;49.342;8.146;2022-09-27T01:52:07;11.40;99.90
780;DHT22;373;49.342;8.146;2022-09-27T01:54:38;11.40;99.90
780;DHT22;373;49.342;8.146;2022-09-27T01:57:31;11.50;99.90
780;DHT22;373;49.342;8.146;2022-09-27T02:00:04;11.50;99.90
780;DHT22;373;49.342;8.146;2022-09-27T02:02:58;11.40;99.90
780;DHT22;373;49.342;8.146;2022-09-27T02:05:37;11.30;99.90
780;DHT22;373;49.342;8.146;2022-09-27T02:08:40;11.40;99.90
780;DHT22;373;49.342;8.146;2022-09-27T02:11:21;11.60;99.90
780;DHT22;373;49.342;8.146;2022-09-27T02:13:59;11.50;99.90
780;DHT22;373;49.342;8.146;2022-09-27T02:16:47;11.60;99.90
780;DHT22;373;49.342;8.146;2022-09-27T02:19:27;11.60;99.90
780;DHT22;373;49.342;8.146;2022-09-27T02:22:11;11.80;99.90
780;DHT22;373;49.342;8.146;2022-09-27T02:24:44;11.70;99.90
780;DHT22;373;49.342;8.146;2022-09-27T02:27:17;11.70;99.90
780;DHT22;373;49.342;8.146;2022-09-27T02:29:52;11.80;99.90
780;DHT22;373;49.342;8.146;2022-09-27T02:32:20;11.80;99.90
780;DHT22;373;49.342;8.146;2022-09-27T02:34:49;11.70;99.90
780;DHT22;373;49.342;8.146;2022-09-27T02:37:18;11.60;99.90
780;DHT22;373;49.342;8.146;2022-09-27T02:39:46;11.50;99.90
780;DHT22;373;49.342;8.146;2022-09-27T02:42:14;11.60;99.90
780;DHT22;373;49.342;8.146;2022-09-27T02:44:42;11.60;99.90
780;DHT22;373;49.342;8.146;2022-09-27T02:47:40;11.60;99.90
780;DHT22;373;49.342;8.146;2022-09-27T02:50:32;11.60;99.90
780;DHT22;373;49.342;8.146;2022-09-27T02:53:29;11.50;99.90
780;DHT22;373;49.342;8.146;2022-09-27T02:56:09;11.50;99.90
780;DHT22;373;49.342;8.146;2022-09-27T02:59:05;11.30;99.90
780;DHT22;373;49.342;8.146;2022-09-27T03:02:07;11.30;99.90
780;DHT22;373;49.342;8.146;2022-09-27T03:04:52;11.40;99.90
780;DHT22;373;49.342;8.146;2022-09-27T03:07:22;11.40;99.90
780;DHT22;373;49.342;8.146;2022-09-27T03:09:52;11.30;99.90
780;DHT22;373;49.342;8.146;2022-09-27T03:12:20;11.30;99.90
780;DHT22;373;49.342;8.146;2022-09-27T03:14:51;11.30;99.90
780;DHT22;373;49.342;8.146;2022-09-27T03:17:37;11.30;99.90
780;DHT22;373;49.342;8.146;2022-09-27T03:20:34;11.30;99.90
780;DHT22;373;49.342;8.146;2022-09-27T03:23:11;11.30;99.90
780;DHT22;373;49.342;8.146;2022-09-27T03:25:38;11.30;99.90
780;DHT22;373;49.342;8.146;2022-09-27T03:28:07;11.40;99.90
780;DHT22;373;49.342;8.146;2022-09-27T03:30:38;11.30;99.90
780;DHT22;373;49.342;8.146;2022-09-27T03:33:07;11.20;99.90
780;DHT22;373;49.342;8.146;2022-09-27T03:35:47;11.10;99.90
780;DHT22;373;49.342;8.146;2022-09-27T03:38:16;11.20;99.90
780;DHT22;373;49.342;8.146;2022-09-27T03:40:43;11.10;99.90
780;DHT22;373;49.342;8.146;2022-09-27T03:43:11;11.20;99.90
780;DHT22;373;49.342;8.146;2022-09-27T03:45:38;11.20;99.90
780;DHT22;373;49.342;8.146;2022-09-27T03:48:08;11.20;99.90
780;DHT22;373;49.342;8.146;2022-09-27T03:50:35;11.20;99.90
780;DHT22;373;49.342;8.146;2022-09-27T03:53:03;11.30;99.90
780;DHT22;373;49.342;8.146;2022-09-27T03:55:32;11.30;99.90
780;DHT22;373;49.342;8.146;2022-09-27T03:58:00;11.30;99.90
780;DHT22;373;49.342;8.146;2022-09-27T04:00:27;11.30;99.90
780;DHT22;373;49.342;8.146;2022-09-27T04:02:58;11.30;99.90
780;DHT22;373;49.342;8.146;2022-09-27T04:05:26;11.40;99.90
780;DHT22;373;49.342;8.146;2022-09-27T04:08:16;11.30;99.90
780;DHT22;373;49.342;8.146;2022-09-27T04:10:45;11.10;99.90
780;DHT22;373;49.342;8.146;2022-09-27T04:13:12;11.20;99.90
780;DHT22;373;49.342;8.146;2022-09-27T04:15:50;11.10;99.90
780;DHT22;373;49.342;8.146;2022-09-27T04:18:35;11.20;99.90
780;DHT22;373;49.342;8.146;2022-09-27T04:21:11;11.20;99.90
780;DHT22;373;49.342;8.146;2022-09-27T04:23:45;11.30;99.90
780;DHT22;373;49.342;8.146;2022-09-27T04:26:17;11.40;99.90
780;DHT22;373;49.342;8.146;2022-09-27T04:28:52;11.40;99.90
780;DHT22;373;49.342;8.146;2022-09-27T04:31:20;11.30;99.90
780;DHT22;373;49.342;8.146;2022-09-27T04:34:06;11.30;99.90
780;DHT22;373;49.342;8.146;2022-09-27T04:36:35;11.30;99.90
780;DHT22;373;49.342;8.146;2022-09-27T04:39:06;11.20;99.90
780;DHT22;373;49.342;8.146;2022-09-27T04:41:38;11.00;99.90
780;DHT22;373;49.342;8.146;2022-09-27T04:44:05;10.90;99.90
780;DHT22;373;49.342;8.146;2022-09-27T04:46:33;10.90;99.90
780;DHT22;373;49.342;8.146;2022-09-27T04:49:01;10.80;99.90
780;DHT22;373;49.342;8.146;2022-09-27T04:51:30;10.80;99.90
780;DHT22;373;49.342;8.146;2022-09-27T04:53:57;10.80;99.90
780;DHT22;373;49.342;8.146;2022-09-27T04:56:29;10.90;99.90
780;DHT22;373;49.342;8.146;2022-09-27T04:58:58;10.70;99.90
780;DHT22;373;49.342;8.146;2022-09-27T05:01:26;10.80;99.90
780;DHT22;373;49.342;8.146;2022-09-27T05:04:28;10.80;99.90
780;DHT22;373;49.342;8.146;2022-09-27T05:06:57;11.00;99.90
780;DHT22;373;49.342;8.146;2022-09-27T05:09:34;11.00;99.90
780;DHT22;373;49.342;8.146;2022-09-27T05:12:01;11.10;99.90
780;DHT22;373;49.342;8.146;2022-09-27T05:14:33;11.20;99.90
780;DHT22;373;49.342;8.146;2022-09-27T05:17:20;11.20;99.90
780;DHT22;373;49.342;8.146;2022-09-27T05:19:48;11.10;99.90
780;DHT22;373;49.342;8.146;2022-09-27T05:22:27;11.10;99.90
780;DHT22;373;49.342;8.146;2022-09-27T05:24:54;11.20;99.90
780;DHT22;373;49.342;8.146;2022-09-27T05:27:23;11.20;99.90
780;DHT22;373;49.342;8.146;2022-09-27T05:29:52;11.00;99.90
780;DHT22;373;49.342;8.146;2022-09-27T05:32:33;10.90;99.90
780;DHT22;373;49.342;8.146;2022-09-27T05:35:21;11.00;99.90
780;DHT22;373;49.342;8.146;2022-09-27T05:37:52;11.00;99.90
780;DHT22;373;49.342;8.146;2022-09-27T05:40:21;11.20;99.90
780;DHT22;373;49.342;8.146;2022-09-27T05:42:50;11.30;99.90
780;DHT22;373;49.342;8.146;2022-09-27T05:45:20;11.20;99.90
780;DHT22;373;49.342;8.146;2022-09-27T05:47:52;11.30;99.90
780;DHT22;373;49.342;8.146;2022-09-27T05:50:20;11.30;99.90
780;DHT22;373;49.342;8.146;2022-09-27T05:52:47;11.40;99.90
780;DHT22;373;49.342;8.146;2022-09-27T05:55:16;11.30;99.90
780;DHT22;373;49.342;8.146;2022-09-27T05:57:54;11.20;99.90
780;DHT22;373;49.342;8.146;2022-09-27T06:00:26;11.10;99.90
780;DHT22;373;49.342;8.146;2022-09-27T06:02:55;11.20;99.90
780;DHT22;373;49.342;8.146;2022-09-27T06:05:42;11.20;99.90
780;DHT22;373;49.342;8.146;2022-09-27T06:08:39;11.20;99.90
780;DHT22;373;49.342;8.146;2022-09-27T06:11:11;11.20;99.90
780;DHT22;373;49.342;8.146;2022-09-27T06:13:38;11.10;99.90
780;DHT22;373;49.342;8.146;2022-09-27T06:16:09;11.10;99.90
780;DHT22;373;49.342;8.146;2022-09-27T06:18:41;11.10;99.90
780;DHT22;373;49.342;8.146;2022-09-27T06:21:09;11.10;99.90
780;DHT22;373;49.342;8.146;2022-09-27T06:23:36;11.10;99.90
780;DHT22;373;49.342;8.146;2022-09-27T06:26:18;11.00;99.90
780;DHT22;373;49.342;8.146;2022-09-27T06:29:01;11.00;99.90
780;DHT22;373;49.342;8.146;2022-09-27T06:31:31;11.00;99.90
780;DHT22;373;49.342;8.146;2022-09-27T06:34:09;11.20;99.90
780;DHT22;373;49.342;8.146;2022-09-27T06:36:36;11.40;99.90
780;DHT22;373;49.342;8.146;2022-09-27T06:39:04;11.40;99.90
780;DHT22;373;49.342;8.146;2022-09-27T06:41:39;11.30;99.90
780;DHT22;373;49.342;8.146;2022-09-27T06:44:38;11.20;99.90
780;DHT22;373;49.342;8.146;2022-09-27T06:47:26;11.30;99.90
780;DHT22;373;49.342;8.146;2022-09-27T06:50:37;11.50;99.90
780;DHT22;373;49.342;8.146;2022-09-27T06:54:11;11.50;99.90
780;DHT22;373;49.342;8.146;2022-09-27T06:56:45;11.60;99.90
780;DHT22;373;49.342;8.146;2022-09-27T06:59:18;11.70;99.90
780;DHT22;373;49.342;8.146;2022-09-27T07:02:29;11.70;99.90
780;DHT22;373;49.342;8.146;2022-09-27T07:05:15;11.70;99.90
780;DHT22;373;49.342;8.146;2022-09-27T07:08:00;11.80;99.90
780;DHT22;373;49.342;8.146;2022-09-27T07:10:30;11.60;99.90
780;DHT22;373;49.342;8.146;2022-09-27T07:13:02;11.70;99.90
780;DHT22;373;49.342;8.146;2022-09-27T07:15:30;11.70;99.90
780;DHT22;373;49.342;8.146;2022-09-27T07:18:03;11.70;99.90
780;DHT22;373;49.342;8.146;2022-09-27T07:20:31;11.60;99.90
780;DHT22;373;49.342;8.146;2022-09-27T07:23:00;11.60;99.90
780;DHT22;373;49.342;8.146;2022-09-27T07:25:29;11.80;99.90
780;DHT22;373;49.342;8.146;2022-09-27T07:28:00;11.80;99.90
780;DHT22;373;49.342;8.146;2022-09-27T07:30:33;11.80;99.90
780;DHT22;373;49.342;8.146;2022-09-27T07:33:16;11.80;99.90
780;DHT22;373;49.342;8.146;2022-09-27T07:35:51;11.50;99.90
780;DHT22;373;49.342;8.146;2022-09-27T07:38:19;11.60;99.90
780;DHT22;373;49.342;8.146;2022-09-27T07:40:48;11.70;99.90
780;DHT22;373;49.342;8.146;2022-09-27T07:43:23;11.70;99.90
780;DHT22;373;49.342;8.146;2022-09-27T07:45:50;11.70;99.90
780;DHT22;373;49.342;8.146;2022-09-27T07:48:45;11.80;99.90
780;DHT22;373;49.342;8.146;2022-09-27T07:51:22;11.90;99.90
780;DHT22;373;49.342;8.146;2022-09-27T07:54:00;12.00;99.90
780;DHT22;373;49.342;8.146;2022-09-27T07:57:01;12.00;99.90
780;DHT22;373;49.342;8.146;2022-09-27T07:59:33;11.60;99.90
780;DHT22;373;49.342;8.146;2022-09-27T08:02:04;11.70;99.90
780;DHT22;373;49.342;8.146;2022-09-27T08:04:52;11.70;99.90
780;DHT22;373;49.342;8.146;2022-09-27T08:07:29;11.60;99.90
780;DHT22;373;49.342;8.146;2022-09-27T08:10:02;11.70;99.90
780;DHT22;373;49.342;8.146;2022-09-27T08:12:30;11.90;99.90
780;DHT22;373;49.342;8.146;2022-09-27T08:14:57;11.80;99.90
780;DHT22;373;49.342;8.146;2022-09-27T08:17:32;11.90;99.90
780;DHT22;373;49.342;8.146;2022-09-27T08:20:11;11.90;99.90
780;DHT22;373;49.342;8.146;2022-09-27T08:23:23;12.00;99.90
780;DHT22;373;49.342;8.146;2022-09-27T08:26:07;12.00;99.90
780;DHT22;373;49.342;8.146;2022-09-27T08:29:17;12.00;99.90
780;DHT22;373;49.342;8.146;2022-09-27T08:31:54;12.10;99.90
780;DHT22;373;49.342;8.146;2022-09-27T08:34:24;11.90;99.90
780;DHT22;373;49.342;8.146;2022-09-27T08:36:55;11.90;99.90
780;DHT22;373;49.342;8.146;2022-09-27T08:39:26;11.90;99.90
780;DHT22;373;49.342;8.146;2022-09-27T08:42:01;11.90;99.90
780;DHT22;373;49.342;8.146;2022-09-27T08:44:37;12.20;99.90
780;DHT22;373;49.342;8.146;2022-09-27T08:47:17;12.60;99.90
780;DHT22;373;49.342;8.146;2022-09-27T08:49:52;12.50;99.90
780;DHT22;373;49.342;8.146;2022-09-27T08:52:39;12.30;99.90
780;DHT22;373;49.342;8.146;2022-09-27T08:55:23;12.40;99.90
780;DHT22;373;49.342;8.146;2022-09-27T08:57:56;12.50;99.90
780;DHT22;373;49.342;8.146;2022-09-27T09:00:32;12.60;99.90
780;DHT22;373;49.342;8.146;2022-09-27T09:03:18;12.50;99.90
780;DHT22;373;49.342;8.146;2022-09-27T09:06:09;12.70;99.90
780;DHT22;373;49.342;8.146;2022-09-27T09:09:04;12.60;99.90
780;DHT22;373;49.342;8.146;2022-09-27T09:12:02;12.50;99.90
780;DHT22;373;49.342;8.146;2022-09-27T09:15:02;12.50;99.90
780;DHT22;373;49.342;8.146;2022-09-27T09:18:11;12.50;99.90
780;DHT22;373;49.342;8.146;2022-09-27T09:21:26;12.40;99.90
780;DHT22;373;49.342;8.146;2022-09-27T09:24:25;12.10;99.90
780;DHT22;373;49.342;8.146;2022-09-27T09:27:01;12.00;99.90
780;DHT22;373;49.342;8.146;2022-09-27T09:29:53;11.90;99.90
780;DHT22;373;49.342;8.146;2022-09-27T09:32:40;11.70;99.90
780;DHT22;373;49.342;8.146;2022-09-27T09:35:24;11.60;99.90
780;DHT22;373;49.342;8.146;2022-09-27T09:38:01;11.60;99.90
780;DHT22;373;49.342;8.146;2022-09-27T09:40:42;11.40;99.90
780;DHT22;373;49.342;8.146;2022-09-27T09:43:23;11.40;99.90
780;DHT22;373;49.342;8.146;2022-09-27T09:45:58;11.30;99.90
780;DHT22;373;49.342;8.146;2022-09-27T09:48:35;11.30;99.90
780;DHT22;373;49.342;8.146;2022-09-27T09:51:06;11.30;99.90
780;DHT22;373;49.342;8.146;2022-09-27T09:53:40;11.20;99.90
780;DHT22;373;49.342;8.146;2022-09-27T09:56:16;11.20;99.90
780;DHT22;373;49.342;8.146;2022-09-27T09:58:50;11.30;99.90
780;DHT22;373;49.342;8.146;2022-09-27T10:01:26;11.50;99.90
780;DHT22;373;49.342;8.146;2022-09-27T10:03:56;11.60;99.90
780;DHT22;373;49.342;8.146;2022-09-27T10:06:25;11.80;99.90
780;DHT22;373;49.342;8.146;2022-09-27T10:08:54;11.90;99.90
780;DHT22;373;49.342;8.146;2022-09-27T10:11:51;12.10;99.90
780;DHT22;373;49.342;8.146;2022-09-27T10:14:25;12.10;99.90
780;DHT22;373;49.342;8.146;2022-09-27T10:17:02;12.10;99.90
780;DHT22;373;49.342;8.146;2022-09-27T10:19:32;12.10;99.90
780;DHT22;373;49.342;8.146;2022-09-27T10:22:12;12.20;99.90
780;DHT22;373;49.342;8.146;2022-09-27T10:24:53;12.30;99.90
780;DHT22;373;49.342;8.146;2022-09-27T10:27:51;12.50;99.90
780;DHT22;373;49.342;8.146;2022-09-27T10:30:26;12.70;99.90
780;DHT22;373;49.342;8.146;2022-09-27T10:32:56;12.70;99.90
780;DHT22;373;49.342;8.146;2022-09-27T10:35:47;12.80;99.90
780;DHT22;373;49.342;8.146;2022-09-27T10:38:37;12.90;99.90
780;DHT22;373;49.342;8.146;2022-09-27T10:41:24;12.70;99.90
780;DHT22;373;49.342;8.146;2022-09-27T10:44:22;12.70;99.90
780;DHT22;373;49.342;8.146;2022-09-27T10:47:17;13.10;99.90
780;DHT22;373;49.342;8.146;2022-09-27T10:50:16;13.20;99.90
780;DHT22;373;49.342;8.146;2022-09-27T10:53:03;13.40;99.90
780;DHT22;373;49.342;8.146;2022-09-27T10:55:33;14.00;99.90
780;DHT22;373;49.342;8.146;2022-09-27T10:58:18;14.60;99.90
780;DHT22;373;49.342;8.146;2022-09-27T11:00:56;13.90;99.90
780;DHT22;373;49.342;8.146;2022-09-27T11:03:27;13.40;99.90
780;DHT22;373;49.342;8.146;2022-09-27T11:05:56;13.20;99.90
780;DHT22;373;49.342;8.146;2022-09-27T11:08:30;13.20;99.90
780;DHT22;373;49.342;8.146;2022-09-27T11:11:18;13.40;99.90
780;DHT22;373;49.342;8.146;2022-09-27T11:13:58;13.50;99.90
780;DHT22;373;49.342;8.146;2022-09-27T11:16:42;13.20;99.90
780;DHT22;373;49.342;8.146;2022-09-27T11:22:23;12.80;99.90
780;DHT22;373;49.342;8.146;2022-09-27T11:25:05;12.90;99.90
780;DHT22;373;49.342;8.146;2022-09-27T11:27:48;13.00;99.90
780;DHT22;373;49.342;8.146;2022-09-27T11:30:22;13.80;99.90
780;DHT22;373;49.342;8.146;2022-09-27T11:33:39;14.90;99.90
780;DHT22;373;49.342;8.146;2022-09-27T11:36:13;15.40;98.00
780;DHT22;373;49.342;8.146;2022-09-27T11:38:55;15.50;99.90
780;DHT22;373;49.342;8.146;2022-09-27T11:41:53;15.60;95.80
780;DHT22;373;49.342;8.146;2022-09-27T11:44:52;15.20;99.90
780;DHT22;373;49.342;8.146;2022-09-27T11:47:36;15.60;98.70
780;DHT22;373;49.342;8.146;2022-09-27T11:50:30;16.00;95.50
780;DHT22;373;49.342;8.146;2022-09-27T11:53:20;16.50;93.40
780;DHT22;373;49.342;8.146;2022-09-27T11:56:13;16.40;96.10
780;DHT22;373;49.342;8.146;2022-09-27T11:58:50;16.30;94.10
780;DHT22;373;49.342;8.146;2022-09-27T12:01:34;15.80;95.50
780;DHT22;373;49.342;8.146;2022-09-27T12:07:15;15.80;97.30
780;DHT22;373;49.342;8.146;2022-09-27T12:09:54;15.90;95.90
780;DHT22;373;49.342;8.146;2022-09-27T12:12:52;15.80;93.60
780;DHT22;373;49.342;8.146;2022-09-27T12:15:41;15.70;93.20
780;DHT22;373;49.342;8.146;2022-09-27T12:18:26;16.10;95.90
780;DHT22;373;49.342;8.146;2022-09-27T12:21:32;15.80;93.30
780;DHT22;373;49.342;8.146;2022-09-27T12:24:24;15.20;93.60
780;DHT22;373;49.342;8.146;2022-09-27T12:27:36;15.20;93.40
780;DHT22;373;49.342;8.146;2022-09-27T12:30:30;15.80;93.80
780;DHT22;373;49.342;8.146;2022-09-27T12:33:25;16.30;94.00
780;DHT22;373;49.342;8.146;2022-09-27T12:36:13;16.40;92.60
780;DHT22;373;49.342;8.146;2022-09-27T12:38:58;16.10;92.20
780;DHT22;373;49.342;8.146;2022-09-27T12:41:41;15.50;92.60
780;DHT22;373;49.342;8.146;2022-09-27T12:44:43;15.40;94.60
780;DHT22;373;49.342;8.146;2022-09-27T12:50:53;15.10;93.70
780;DHT22;373;49.342;8.146;2022-09-27T12:54:19;15.00;94.40
780;DHT22;373;49.342;8.146;2022-09-27T12:56:51;15.10;95.50
780;DHT22;373;49.342;8.146;2022-09-27T12:59:45;15.10;94.80
780;DHT22;373;49.342;8.146;2022-09-27T13:05:26;14.50;95.00
780;DHT22;373;49.342;8.146;2022-09-27T13:08:24;14.20;96.10
780;DHT22;373;49.342;8.146;2022-09-27T13:11:10;14.20;97.10
780;DHT22;373;49.342;8.146;2022-09-27T13:13:59;14.30;96.40
780;DHT22;373;49.342;8.146;2022-09-27T13:16:44;14.20;96.70
780;DHT22;373;49.342;8.146;2022-09-27T13:19:40;14.20;97.70
780;DHT22;373;49.342;8.146;2022-09-27T13:22:36;14.10;97.50
780;DHT22;373;49.342;8.146;2022-09-27T13:25:47;13.90;98.30
780;DHT22;373;49.342;8.146;2022-09-27T13:28:58;13.70;97.50
780;DHT22;373;49.342;8.146;2022-09-27T13:32:16;13.80;99.90
780;DHT22;373;49.342;8.146;2022-09-27T13:35:17;14.10;99.60
780;DHT22;373;49.342;8.146;2022-09-27T13:37:54;14.40;98.20
780;DHT22;373;49.342;8.146;2022-09-27T13:40:40;14.90;96.60
780;DHT22;373;49.342;8.146;2022-09-27T13:43:37;15.10;93.60
780;DHT22;373;49.342;8.146;2022-09-27T13:46:28;15.50;93.10
780;DHT22;373;49.342;8.146;2022-09-27T13:49:00;15.00;91.90
780;DHT22;373;49.342;8.146;2022-09-27T13:52:02;14.70;93.20
780;DHT22;373;49.342;8.146;2022-09-27T13:54:51;14.90;93.20
780;DHT22;373;49.342;8.146;2022-09-27T13:57:42;14.80;93.30
780;DHT22;373;49.342;8.146;2022-09-27T14:00:20;14.30;94.20
780;DHT22;373;49.342;8.146;2022-09-27T14:02:59;14.20;95.00
780;DHT22;373;49.342;8.146;2022-09-27T14:05:40;14.40;96.00
780;DHT22;373;49.342;8.146;2022-09-27T14:08:19;14.50;95.60
780;DHT22;373;49.342;8.146;2022-09-27T14:10:52;14.40;96.00
780;DHT22;373;49.342;8.146;2022-09-27T14:13:25;14.50;96.90
780;DHT22;373;49.342;8.146;2022-09-27T14:16:05;14.40;96.20
780;DHT22;373;49.342;8.146;2022-09-27T14:18:42;14.20;98.80
780;DHT22;373;49.342;8.146;2022-09-27T14:21:17;14.40;97.60
780;DHT22;373;49.342;8.146;2022-09-27T14:24:27;14.80;96.00
780;DHT22;373;49.342;8.146;2022-09-27T14:27:19;14.70;95.70
780;DHT22;373;49.342;8.146;2022-09-27T14:29:52;15.10;96.30
780;DHT22;373;49.342;8.146;2022-09-27T14:32:49;15.10;94.40
780;DHT22;373;49.342;8.146;2022-09-27T14:35:34;15.10;96.10
780;DHT22;373;49.342;8.146;2022-09-27T14:38:29;15.00;95.80
780;DHT22;373;49.342;8.146;2022-09-27T14:41:09;14.80;96.10
780;DHT22;373;49.342;8.146;2022-09-27T14:43:56;14.80;95.60
780;DHT22;373;49.342;8.146;2022-09-27T14:46:30;14.90;94.40
780;DHT22;373;49.342;8.146;2022-09-27T14:49:18;15.10;95.00
780;DHT22;373;49.342;8.146;2022-09-27T14:52:01;14.90;94.50
780;DHT22;373;49.342;8.146;2022-09-27T14:54:40;15.00;95.70
780;DHT22;373;49.342;8.146;2022-09-27T14:57:14;14.70;94.60
780;DHT22;373;49.342;8.146;2022-09-27T14:59:43;14.40;96.50
780;DHT22;373;49.342;8.146;2022-09-27T15:02:18;14.30;95.70
780;DHT22;373;49.342;8.146;2022-09-27T15:04:55;14.30;97.20
780;DHT22;373;49.342;8.146;2022-09-27T15:07:30;14.30;99.90
780;DHT22;373;49.342;8.146;2022-09-27T15:10:05;14.10;99.30
780;DHT22;373;49.342;8.146;2022-09-27T15:12:34;13.80;99.90
780;DHT22;373;49.342;8.146;2022-09-27T15:15:06;13.70;99.90
780;DHT22;373;49.342;8.146;2022-09-27T15:17:40;13.50;99.90
780;DHT22;373;49.342;8.146;2022-09-27T15:20:20;13.20;99.90
780;DHT22;373;49.342;8.146;2022-09-27T15:22:51;13.00;99.90
780;DHT22;373;49.342;8.146;2022-09-27T15:25:24;12.70;99.90
780;DHT22;373;49.342;8.146;2022-09-27T15:28:00;12.60;99.90
780;DHT22;373;49.342;8.146;2022-09-27T15:30:34;12.70;99.90
780;DHT22;373;49.342;8.146;2022-09-27T15:33:02;12.90;99.90
780;DHT22;373;49.342;8.146;2022-09-27T15:35:34;12.80;99.90
780;DHT22;373;49.342;8.146;2022-09-27T15:38:24;12.70;99.90
780;DHT22;373;49.342;8.146;2022-09-27T15:41:04;12.60;99.90
780;DHT22;373;49.342;8.146;2022-09-27T15:43:37;12.80;99.90
780;DHT22;373;49.342;8.146;2022-09-27T15:46:36;13.00;99.90
780;DHT22;373;49.342;8.146;2022-09-27T15:49:21;13.20;99.90
780;DHT22;373;49.342;8.146;2022-09-27T15:51:53;13.20;99.90
780;DHT22;373;49.342;8.146;2022-09-27T15:54:35;13.10;99.90
780;DHT22;373;49.342;8.146;2022-09-27T15:57:05;13.10;99.90
780;DHT22;373;49.342;8.146;2022-09-27T15:59:35;12.80;99.90
780;DHT22;373;49.342;8.146;2022-09-27T16:02:11;12.60;99.90
780;DHT22;373;49.342;8.146;2022-09-27T16:04:49;12.70;99.90
780;DHT22;373;49.342;8.146;2022-09-27T16:07:21;12.60;99.90
780;DHT22;373;49.342;8.146;2022-09-27T16:09:53;12.70;99.90
780;DHT22;373;49.342;8.146;2022-09-27T16:12:20;12.80;99.90
780;DHT22;373;49.342;8.146;2022-09-27T16:14:47;12.50;99.90
780;DHT22;373;49.342;8.146;2022-09-27T16:17:15;12.20;99.90
780;DHT22;373;49.342;8.146;2022-09-27T16:19:44;12.30;99.90
780;DHT22;373;49.342;8.146;2022-09-27T16:22:11;12.30;99.90
780;DHT22;373;49.342;8.146;2022-09-27T16:24:39;12.20;99.90
780;DHT22;373;49.342;8.146;2022-09-27T16:27:07;12.10;99.90
780;DHT22;373;49.342;8.146;2022-09-27T16:29:38;11.90;99.90
780;DHT22;373;49.342;8.146;2022-09-27T16:32:06;11.80;99.90
780;DHT22;373;49.342;8.146;2022-09-27T16:34:35;11.70;99.90
780;DHT22;373;49.342;8.146;2022-09-27T16:37:02;11.60;99.90
780;DHT22;373;49.342;8.146;2022-09-27T16:39:29;11.70;99.90
780;DHT22;373;49.342;8.146;2022-09-27T16:41:56;11.60;99.90
780;DHT22;373;49.342;8.146;2022-09-27T16:44:25;11.80;99.90
780;DHT22;373;49.342;8.146;2022-09-27T16:46:53;11.90;99.90
780;DHT22;373;49.342;8.146;2022-09-27T16:49:20;12.00;99.90
780;DHT22;373;49.342;8.146;2022-09-27T16:52:04;12.00;99.90
780;DHT22;373;49.342;8.146;2022-09-27T16:54:31;11.80;99.90
780;DHT22;373;49.342;8.146;2022-09-27T16:56:59;11.70;99.90
780;DHT22;373;49.342;8.146;2022-09-27T16:59:27;11.40;99.90
780;DHT22;373;49.342;8.146;2022-09-27T17:01:54;11.30;99.90
780;DHT22;373;49.342;8.146;2022-09-27T17:04:22;11.00;99.90
780;DHT22;373;49.342;8.146;2022-09-27T17:06:50;11.00;99.90
780;DHT22;373;49.342;8.146;2022-09-27T17:09:17;10.90;99.90
780;DHT22;373;49.342;8.146;2022-09-27T17:11:45;10.80;99.90
780;DHT22;373;49.342;8.146;2022-09-27T17:14:14;10.80;99.90
780;DHT22;373;49.342;8.146;2022-09-27T17:16:43;10.80;99.90
780;DHT22;373;49.342;8.146;2022-09-27T17:19:11;10.70;99.90
780;DHT22;373;49.342;8.146;2022-09-27T17:21:39;10.60;99.90
780;DHT22;373;49.342;8.146;2022-09-27T17:24:07;10.60;99.90
780;DHT22;373;49.342;8.146;2022-09-27T17:26:34;10.70;99.90
780;DHT22;373;49.342;8.146;2022-09-27T17:29:01;10.70;99.90
780;DHT22;373;49.342;8.146;2022-09-27T17:31:30;10.70;99.90
780;DHT22;373;49.342;8.146;2022-09-27T17:34:01;10.70;99.90
780;DHT22;373;49.342;8.146;2022-09-27T17:36:30;10.40;99.90
780;DHT22;373;49.342;8.146;2022-09-27T17:39:00;10.20;99.90
780;DHT22;373;49.342;8.146;2022-09-27T17:41:28;10.10;99.90
780;DHT22;373;49.342;8.146;2022-09-27T17:43:57;10.10;99.90
780;DHT22;373;49.342;8.146;2022-09-27T17:46:27;10.30;99.90
780;DHT22;373;49.342;8.146;2022-09-27T17:48:54;10.50;99.90
780;DHT22;373;49.342;8.146;2022-09-27T17:51:41;10.50;99.90
780;DHT22;373;49.342;8.146;2022-09-27T17:54:09;10.40;99.90
780;DHT22;373;49.342;8.146;2022-09-27T17:56:37;10.30;99.90
780;DHT22;373;49.342;8.146;2022-09-27T17:59:05;10.30;99.90
780;DHT22;373;49.342;8.146;2022-09-27T18:01:33;10.20;99.90
780;DHT22;373;49.342;8.146;2022-09-27T18:04:02;10.20;99.90